Historyczne dane pomiarowe

Dodano dane terminowe – wersja testowa.

Dane z okresu 1951-2019

Wersja bazy: 1.34 [2019-03-16, lista zmian], aktualizacja planowana na 2019-04-15

Dane meteo z obszaru Polski uzyskane na podstawie danych udostępnionych przez Instytut Meteorologii i Gospodarki Wodnej – Państwowy Instytut Badawczy.

 

Wybierz Datę:    

       

TemperaturaWilgotnośćWiatrCiśnienieOpadyŚniegCzas trwania zjawisk
 Stacja t tx tn tng RH VA  wxwx mslp ppp RRR   cm mm wxwxwxwxwxwxwx
1961-02-14 4.5 6.2 2.0 0.5 94.0- 8.0 2.7---- 0.0------------
1961-02-15 5.4 12.7 0.6 -3.3 87.3- 0.7 1.7---- 0.0------------
1961-02-16 5.9 6.9 2.6 0.2 95.5- 8.0 4.0---- 0.0------------
1961-02-17 4.0 10.3 1.3 3.9 88.8- 2.7 2.0---- 0.0------------
1961-02-18 3.4 13.6 -3.5 -4.1 88.0- 0.0 2.3---- 0.0------------
1961-02-19 3.9 5.2 0.1 -2.9 96.0- 8.0 4.0---- 0.1------------
1961-02-20 4.8 5.9 4.1 3.7 89.3- 8.0 2.3---- 0.0------------
1961-02-21 3.9 9.5 1.9- 83.5- 4.0 1.7---- 0.0------------
1961-02-22 2.6 8.0 -1.6- 85.5- 0.0 2.7---- 0.0------------
1961-02-23 1.5 3.5 -1.1- 91.5- 2.7 4.0---- 0.0------------
1961-02-24 1.1 6.4 -1.3- 94.5- 5.3 2.7---- 0.0------------
1961-02-25 1.2 7.7 -1.9- 91.0- 2.3 3.7---- 0.0------------
1961-02-26 2.9 10.1 -2.0- 82.3- 0.0 3.3---- 0.0------------
1961-02-27 6.8 11.6 0.0- 84.3- 8.0 3.7---- 0.5------------
1961-02-28 6.4 11.7 3.7- 80.3- 8.0 7.0---- 0.6------------
1961-03-01 3.1 5.5 1.7- 92.3- 5.3 4.3---- 1.7------------
1961-03-02 2.6 4.6 -0.7- 87.0- 7.7 5.0---- 0.3------------
1961-03-03 5.0 7.3 1.6- 97.8- 8.0 2.0---- 1.4------------
1961-03-04 3.8 9.0 2.7- 94.3- 6.0 3.7---- 0.0------------
1961-03-05 3.0 6.6 0.8- 94.0- 5.3 3.7---- 0.0------------
1961-03-06 2.5 9.8 0.4- 96.8- 5.0 3.0---- 0.0------------
1961-03-07 6.4 15.6 -1.9- 78.5- 4.7 3.0---- 0.0------------
1961-03-08 5.4 13.9 -0.1- 83.5- 0.7 3.7---- 0.0------------
1961-03-09 7.4 15.8 0.2- 69.5- 3.3 4.7---- 0.0------------
1961-03-10 8.6 19.6 -1.1- 68.8- 1.3 2.0---- 0.0------------
1961-03-11 8.2 11.3 3.1- 79.0- 5.3 4.7---- 0.0------------
1961-03-12 12.7 16.3 6.5- 60.0- 8.0 9.0---- 1.2------------
1961-03-13 5.3 15.3 2.5- 70.3- 4.7 7.3---- 0.8------------
1961-03-14 8.0 10.5 2.4- 94.5- 8.0 4.3---- 3.0------------
1961-03-15 10.0 14.9 8.6- 81.0- 4.0 7.3---- 0.0------------
139.3 ms

 

Źródłem pochodzenia danych jest Instytut Meteorologii i Gospodarki Wodnej – Państwowy Instytut Badawczy. Dane Instytutu Meteorologii i Gospodarki Wodnej – Państwowego Instytutu Badawczego zostały przetworzone.

Dane źródłowe można odnaleźć na stronie https://dane.imgw.pl